sensor_id;sensor_type;location;lat;lon;timestamp;pressure;altitude;pressure_sealevel;temperature;humidity
74635;BME280;63140;56.306;43.984;2022-11-15T00:01:54;99310.44;;;-1.87;75.01
74635;BME280;63140;56.306;43.984;2022-11-15T00:04:38;99304.66;;;-1.84;74.89
74635;BME280;63140;56.306;43.984;2022-11-15T00:07:22;99308.03;;;-1.75;74.60
74635;BME280;63140;56.306;43.984;2022-11-15T00:10:07;99312.44;;;-1.76;74.45
74635;BME280;63140;56.306;43.984;2022-11-15T00:12:51;99308.19;;;-1.72;74.46
74635;BME280;63140;56.306;43.984;2022-11-15T00:15:39;99303.75;;;-1.62;73.80
74635;BME280;63140;56.306;43.984;2022-11-15T00:18:24;99307.91;;;-1.61;73.64
74635;BME280;63140;56.306;43.984;2022-11-15T00:21:13;99304.06;;;-1.55;73.42
74635;BME280;63140;56.306;43.984;2022-11-15T00:23:58;99305.28;;;-1.53;73.27
74635;BME280;63140;56.306;43.984;2022-11-15T00:26:42;99296.41;;;-1.60;72.71
74635;BME280;63140;56.306;43.984;2022-11-15T00:29:26;99312.03;;;-1.52;72.90
74635;BME280;63140;56.306;43.984;2022-11-15T00:32:11;99295.03;;;-1.49;72.13
74635;BME280;63140;56.306;43.984;2022-11-15T00:34:56;99303.47;;;-1.43;72.03
74635;BME280;63140;56.306;43.984;2022-11-15T00:37:40;99298.09;;;-1.47;71.90
74635;BME280;63140;56.306;43.984;2022-11-15T00:40:25;99289.50;;;-1.56;72.12
74635;BME280;63140;56.306;43.984;2022-11-15T00:43:09;99291.19;;;-1.60;72.36
74635;BME280;63140;56.306;43.984;2022-11-15T00:45:53;99271.75;;;-1.54;72.00
74635;BME280;63140;56.306;43.984;2022-11-15T00:48:38;99280.16;;;-1.49;72.07
74635;BME280;63140;56.306;43.984;2022-11-15T00:51:22;99275.88;;;-1.53;71.97
74635;BME280;63140;56.306;43.984;2022-11-15T00:54:06;99270.81;;;-1.58;71.68
74635;BME280;63140;56.306;43.984;2022-11-15T00:56:50;99278.31;;;-1.65;71.98
74635;BME280;63140;56.306;43.984;2022-11-15T00:59:35;99273.41;;;-1.76;72.07
74635;BME280;63140;56.306;43.984;2022-11-15T01:02:19;99285.97;;;-1.78;71.75
74635;BME280;63140;56.306;43.984;2022-11-15T01:05:04;99277.56;;;-1.75;71.89
74635;BME280;63140;56.306;43.984;2022-11-15T01:07:55;99276.63;;;-1.70;71.78
74635;BME280;63140;56.306;43.984;2022-11-15T01:10:40;99280.78;;;-1.69;71.97
74635;BME280;63140;56.306;43.984;2022-11-15T01:13:24;99269.28;;;-1.59;71.78
74635;BME280;63140;56.306;43.984;2022-11-15T01:16:12;99274.50;;;-1.59;71.89
74635;BME280;63140;56.306;43.984;2022-11-15T01:18:56;99272.97;;;-1.60;71.55
74635;BME280;63140;56.306;43.984;2022-11-15T01:21:41;99271.47;;;-1.61;72.03
74635;BME280;63140;56.306;43.984;2022-11-15T01:24:25;99285.22;;;-1.61;71.86
74635;BME280;63140;56.306;43.984;2022-11-15T01:27:10;99277.88;;;-1.67;71.80
74635;BME280;63140;56.306;43.984;2022-11-15T01:29:54;99271.13;;;-1.60;71.39
74635;BME280;63140;56.306;43.984;2022-11-15T01:32:38;99271.13;;;-1.69;71.04
74635;BME280;63140;56.306;43.984;2022-11-15T01:35:23;99275.13;;;-1.71;71.31
74635;BME280;63140;56.306;43.984;2022-11-15T01:38:07;99279.41;;;-1.66;71.29
74635;BME280;63140;56.306;43.984;2022-11-15T01:40:52;99279.09;;;-1.74;70.98
74635;BME280;63140;56.306;43.984;2022-11-15T01:43:37;99274.78;;;-1.70;71.33
74635;BME280;63140;56.306;43.984;2022-11-15T01:49:14;99285.66;;;-1.76;71.39
74635;BME280;63140;56.306;43.984;2022-11-15T01:52:03;99290.88;;;-1.76;71.35
74635;BME280;63140;56.306;43.984;2022-11-15T01:54:51;99277.84;;;-1.85;71.35
74635;BME280;63140;56.306;43.984;2022-11-15T01:57:39;99286.41;;;-1.93;71.57
74635;BME280;63140;56.306;43.984;2022-11-15T02:00:25;99274.47;;;-1.94;71.85
74635;BME280;63140;56.306;43.984;2022-11-15T02:03:10;99278.47;;;-1.88;71.58
74635;BME280;63140;56.306;43.984;2022-11-15T02:05:54;99276.31;;;-1.95;71.55
74635;BME280;63140;56.306;43.984;2022-11-15T02:08:39;99287.31;;;-1.98;71.61
74635;BME280;63140;56.306;43.984;2022-11-15T02:11:23;99268.38;;;-1.89;71.42
74635;BME280;63140;56.306;43.984;2022-11-15T02:14:09;99282.59;;;-1.87;71.27
74635;BME280;63140;56.306;43.984;2022-11-15T02:35:45;99271.41;;;-1.96;71.83
74635;BME280;63140;56.306;43.984;2022-11-15T02:44:33;99269.84;;;-1.97;72.28
74635;BME280;63140;56.306;43.984;2022-11-15T02:47:22;99273.09;;;-1.92;72.22
74635;BME280;63140;56.306;43.984;2022-11-15T02:50:11;99277.84;;;-1.85;72.05
74635;BME280;63140;56.306;43.984;2022-11-15T02:52:56;99272.34;;;-1.92;72.11
74635;BME280;63140;56.306;43.984;2022-11-15T02:55:49;99268.38;;;-1.81;72.13
74635;BME280;63140;56.306;43.984;2022-11-15T02:58:56;99271.88;;;-1.77;71.89
74635;BME280;63140;56.306;43.984;2022-11-15T03:04:58;99277.56;;;-1.75;72.10
74635;BME280;63140;56.306;43.984;2022-11-15T03:11:09;99282.78;;;-1.75;72.46
74635;BME280;63140;56.306;43.984;2022-11-15T03:19:57;99278.03;;;-1.64;72.45
74635;BME280;63140;56.306;43.984;2022-11-15T03:22:44;99283.09;;;-1.67;72.24
74635;BME280;63140;56.306;43.984;2022-11-15T03:25:32;99282.63;;;-1.61;72.68
74635;BME280;63140;56.306;43.984;2022-11-15T03:28:25;99280.31;;;-1.62;72.35
74635;BME280;63140;56.306;43.984;2022-11-15T03:31:14;99289.22;;;-1.63;72.39
74635;BME280;63140;56.306;43.984;2022-11-15T03:34:32;99288.44;;;-1.55;72.22
74635;BME280;63140;56.306;43.984;2022-11-15T03:37:21;99282.31;;;-1.59;72.53
74635;BME280;63140;56.306;43.984;2022-11-15T03:40:06;99285.06;;;-1.56;72.72
74635;BME280;63140;56.306;43.984;2022-11-15T03:43:13;99290.28;;;-1.56;72.81
74635;BME280;63140;56.306;43.984;2022-11-15T03:49:31;99288.91;;;-1.71;72.98
74635;BME280;63140;56.306;43.984;2022-11-15T03:52:18;99298.69;;;-1.59;73.02
74635;BME280;63140;56.306;43.984;2022-11-15T03:55:04;99297.94;;;-1.68;73.20
74635;BME280;63140;56.306;43.984;2022-11-15T03:57:53;99312.47;;;-1.58;73.41
74635;BME280;63140;56.306;43.984;2022-11-15T04:00:38;99305.75;;;-1.59;73.25
74635;BME280;63140;56.306;43.984;2022-11-15T04:03:23;99308.22;;;-1.54;72.79
74635;BME280;63140;56.306;43.984;2022-11-15T04:06:07;99311.72;;;-1.50;73.04
74635;BME280;63140;56.306;43.984;2022-11-15T04:08:52;99314.63;;;-1.60;72.89
74635;BME280;63140;56.306;43.984;2022-11-15T04:11:36;99311.25;;;-1.61;73.33
74635;BME280;63140;56.306;43.984;2022-11-15T04:14:21;99309.25;;;-1.55;73.32
74635;BME280;63140;56.306;43.984;2022-11-15T04:17:05;99310.03;;;-1.55;73.29
74635;BME280;63140;56.306;43.984;2022-11-15T04:19:50;99314.94;;;-1.53;73.17
74635;BME280;63140;56.306;43.984;2022-11-15T04:22:54;99314.34;;;-1.50;73.11
74635;BME280;63140;56.306;43.984;2022-11-15T04:26:02;99305.91;;;-1.56;73.27
74635;BME280;63140;56.306;43.984;2022-11-15T04:28:47;99299.00;;;-1.60;73.53
74635;BME280;63140;56.306;43.984;2022-11-15T04:31:50;99309.75;;;-1.53;73.74
74635;BME280;63140;56.306;43.984;2022-11-15T04:34:34;99313.09;;;-1.61;73.59
74635;BME280;63140;56.306;43.984;2022-11-15T04:37:19;99309.44;;;-1.60;73.50
74635;BME280;63140;56.306;43.984;2022-11-15T04:40:04;99318.31;;;-1.61;74.53
74635;BME280;63140;56.306;43.984;2022-11-15T04:42:48;99322.16;;;-1.50;73.48
74635;BME280;63140;56.306;43.984;2022-11-15T04:45:33;99329.81;;;-1.45;74.15
74635;BME280;63140;56.306;43.984;2022-11-15T04:48:17;99313.41;;;-1.54;73.36
74635;BME280;63140;56.306;43.984;2022-11-15T04:51:02;99321.06;;;-1.49;73.42
74635;BME280;63140;56.306;43.984;2022-11-15T04:53:46;99335.78;;;-1.36;74.11
74635;BME280;63140;56.306;43.984;2022-11-15T04:56:33;99319.56;;;-1.33;73.18
74635;BME280;63140;56.306;43.984;2022-11-15T04:59:18;99325.38;;;-1.36;73.08
74635;BME280;63140;56.306;43.984;2022-11-15T05:02:02;99336.09;;;-1.46;74.33
74635;BME280;63140;56.306;43.984;2022-11-15T05:04:46;99326.59;;;-1.42;73.91
74635;BME280;63140;56.306;43.984;2022-11-15T05:07:30;99337.16;;;-1.38;73.27
74635;BME280;63140;56.306;43.984;2022-11-15T05:10:15;99326.91;;;-1.26;73.19
74635;BME280;63140;56.306;43.984;2022-11-15T05:13:00;99339.78;;;-1.30;72.33
74635;BME280;63140;56.306;43.984;2022-11-15T05:15:44;99341.31;;;-1.29;72.11
74635;BME280;63140;56.306;43.984;2022-11-15T05:18:28;99346.53;;;-1.29;71.60
74635;BME280;63140;56.306;43.984;2022-11-15T05:21:14;99343.00;;;-1.24;71.96
74635;BME280;63140;56.306;43.984;2022-11-15T05:23:58;99341.91;;;-1.23;71.34
74635;BME280;63140;56.306;43.984;2022-11-15T05:26:43;99341.00;;;-1.18;71.26
74635;BME280;63140;56.306;43.984;2022-11-15T05:29:27;99337.63;;;-1.10;71.26
74635;BME280;63140;56.306;43.984;2022-11-15T05:32:12;99352.03;;;-1.04;70.75
74635;BME280;63140;56.306;43.984;2022-11-15T05:34:56;99347.88;;;-1.14;69.79
74635;BME280;63140;56.306;43.984;2022-11-15T05:37:42;99339.94;;;-1.09;70.33
74635;BME280;63140;56.306;43.984;2022-11-15T05:40:29;99341.13;;;-1.06;70.06
74635;BME280;63140;56.306;43.984;2022-11-15T05:43:13;99334.25;;;-1.20;69.54
74635;BME280;63140;56.306;43.984;2022-11-15T05:45:58;99346.22;;;-1.18;69.37
74635;BME280;63140;56.306;43.984;2022-11-15T05:48:46;99340.84;;;-1.13;69.37
74635;BME280;63140;56.306;43.984;2022-11-15T05:51:32;99349.75;;;-1.14;69.08
74635;BME280;63140;56.306;43.984;2022-11-15T05:54:19;99354.78;;;-1.27;68.73
74635;BME280;63140;56.306;43.984;2022-11-15T05:57:05;99349.56;;;-1.27;68.59
74635;BME280;63140;56.306;43.984;2022-11-15T05:59:49;99352.03;;;-1.22;68.55
74635;BME280;63140;56.306;43.984;2022-11-15T06:02:35;99361.53;;;-1.17;68.05
74635;BME280;63140;56.306;43.984;2022-11-15T06:05:19;99359.53;;;-1.20;68.05
74635;BME280;63140;56.306;43.984;2022-11-15T06:08:04;99368.59;;;-1.17;68.11
74635;BME280;63140;56.306;43.984;2022-11-15T06:10:48;99358.78;;;-1.21;67.77
74635;BME280;63140;56.306;43.984;2022-11-15T06:13:33;99362.91;;;-1.20;68.02
74635;BME280;63140;56.306;43.984;2022-11-15T06:16:18;99364.91;;;-1.16;67.89
74635;BME280;63140;56.306;43.984;2022-11-15T06:19:03;99356.34;;;-1.08;68.36
74635;BME280;63140;56.306;43.984;2022-11-15T06:21:47;99360.13;;;-1.06;68.11
74635;BME280;63140;56.306;43.984;2022-11-15T06:24:32;99363.69;;;-1.10;68.24
74635;BME280;63140;56.306;43.984;2022-11-15T06:27:16;99367.38;;;-1.11;68.52
74635;BME280;63140;56.306;43.984;2022-11-15T06:30:00;99371.66;;;-0.98;68.14
74635;BME280;63140;56.306;43.984;2022-11-15T06:32:45;99364.59;;;-0.89;67.93
74635;BME280;63140;56.306;43.984;2022-11-15T06:35:29;99364.59;;;-0.80;67.73
74635;BME280;63140;56.306;43.984;2022-11-15T06:38:14;99359.19;;;-0.75;67.97
74635;BME280;63140;56.306;43.984;2022-11-15T06:41:07;99357.03;;;-0.64;67.36
74635;BME280;63140;56.306;43.984;2022-11-15T06:43:52;99369.28;;;-0.56;67.21
74635;BME280;63140;56.306;43.984;2022-11-15T06:46:36;99368.25;;;-0.73;66.56
74635;BME280;63140;56.306;43.984;2022-11-15T06:49:21;99366.22;;;-0.67;67.31
74635;BME280;63140;56.306;43.984;2022-11-15T06:52:08;99365.63;;;-0.64;66.40
74635;BME280;63140;56.306;43.984;2022-11-15T06:54:53;99380.19;;;-0.54;66.75
74635;BME280;63140;56.306;43.984;2022-11-15T06:57:46;99367.03;;;-0.66;66.30
74635;BME280;63140;56.306;43.984;2022-11-15T07:00:30;99371.31;;;-0.70;66.96
74635;BME280;63140;56.306;43.984;2022-11-15T07:03:15;99370.81;;;-0.55;67.00
74635;BME280;63140;56.306;43.984;2022-11-15T07:05:59;99370.38;;;-0.57;65.73
74635;BME280;63140;56.306;43.984;2022-11-15T07:08:43;99380.34;;;-0.59;65.97
74635;BME280;63140;56.306;43.984;2022-11-15T07:11:27;99366.72;;;-0.74;67.01
74635;BME280;63140;56.306;43.984;2022-11-15T07:14:12;99363.63;;;-0.67;66.75
74635;BME280;63140;56.306;43.984;2022-11-15T07:16:56;99367.59;;;-0.52;66.69
74635;BME280;63140;56.306;43.984;2022-11-15T07:19:40;99360.69;;;-0.57;66.27
74635;BME280;63140;56.306;43.984;2022-11-15T07:22:25;99362.84;;;-0.59;66.39
74635;BME280;63140;56.306;43.984;2022-11-15T07:25:09;99373.09;;;-0.45;66.29
74635;BME280;63140;56.306;43.984;2022-11-15T07:27:57;99369.41;;;-0.44;66.36
74635;BME280;63140;56.306;43.984;2022-11-15T07:30:42;99372.81;;;-0.52;66.98
74635;BME280;63140;56.306;43.984;2022-11-15T07:33:27;99374.91;;;-0.37;66.61
74635;BME280;63140;56.306;43.984;2022-11-15T07:36:11;99364.63;;;-0.25;65.65
74635;BME280;63140;56.306;43.984;2022-11-15T07:38:55;99369.75;;;-0.07;65.94
74635;BME280;63140;56.306;43.984;2022-11-15T07:41:40;99361.66;;;0.15;65.95
74635;BME280;63140;56.306;43.984;2022-11-15T07:44:25;99369.00;;;0.22;65.59
74635;BME280;63140;56.306;43.984;2022-11-15T07:47:09;99376.63;;;0.36;65.69
74635;BME280;63140;56.306;43.984;2022-11-15T07:49:54;99366.59;;;0.38;65.68
74635;BME280;63140;56.306;43.984;2022-11-15T07:52:38;99371.38;;;0.36;64.97
74635;BME280;63140;56.306;43.984;2022-11-15T07:55:23;99368.16;;;0.39;65.21
74635;BME280;63140;56.306;43.984;2022-11-15T07:58:10;99375.25;;;0.30;65.95
74635;BME280;63140;56.306;43.984;2022-11-15T08:00:54;99367.19;;;0.14;66.15
74635;BME280;63140;56.306;43.984;2022-11-15T08:03:38;99365.66;;;0.13;66.37
74635;BME280;63140;56.306;43.984;2022-11-15T08:06:23;99366.69;;;0.20;66.48
74635;BME280;63140;56.306;43.984;2022-11-15T08:09:07;99362.00;;;0.35;65.81
74635;BME280;63140;56.306;43.984;2022-11-15T08:11:51;99367.22;;;0.35;65.30
74635;BME280;63140;56.306;43.984;2022-11-15T08:14:36;99366.88;;;0.45;65.30
74635;BME280;63140;56.306;43.984;2022-11-15T08:17:21;99367.75;;;0.28;65.52
74635;BME280;63140;56.306;43.984;2022-11-15T08:20:05;99358.16;;;0.11;66.27
74635;BME280;63140;56.306;43.984;2022-11-15T08:22:50;99365.59;;;-0.08;66.87
74635;BME280;63140;56.306;43.984;2022-11-15T08:25:35;99360.03;;;0.02;67.29
74635;BME280;63140;56.306;43.984;2022-11-15T08:28:19;99354.19;;;0.05;66.67
74635;BME280;63140;56.306;43.984;2022-11-15T08:31:05;99368.19;;;0.01;66.88
74635;BME280;63140;56.306;43.984;2022-11-15T08:34:09;99354.53;;;-0.05;67.17
74635;BME280;63140;56.306;43.984;2022-11-15T08:37:05;99357.00;;;0.00;67.47
74635;BME280;63140;56.306;43.984;2022-11-15T08:39:53;99359.47;;;-0.12;67.80
74635;BME280;63140;56.306;43.984;2022-11-15T08:42:39;99357.25;;;-0.31;68.29
74635;BME280;63140;56.306;43.984;2022-11-15T08:45:42;99356.41;;;-0.14;68.85
74635;BME280;63140;56.306;43.984;2022-11-15T08:48:30;99370.06;;;-0.09;67.99
74635;BME280;63140;56.306;43.984;2022-11-15T08:51:14;99360.84;;;-0.06;68.23
74635;BME280;63140;56.306;43.984;2022-11-15T08:53:58;99370.69;;;-0.12;68.25
74635;BME280;63140;56.306;43.984;2022-11-15T08:56:42;99363.19;;;-0.13;68.26
74635;BME280;63140;56.306;43.984;2022-11-15T08:59:27;99364.09;;;-0.18;68.24
74635;BME280;63140;56.306;43.984;2022-11-15T09:02:15;99361.91;;;-0.07;68.08
74635;BME280;63140;56.306;43.984;2022-11-15T09:04:59;99352.06;;;-0.02;67.97
74635;BME280;63140;56.306;43.984;2022-11-15T09:07:43;99355.72;;;0.06;67.79
74635;BME280;63140;56.306;43.984;2022-11-15T09:10:27;99356.25;;;0.20;68.16
74635;BME280;63140;56.306;43.984;2022-11-15T09:13:14;99363.19;;;0.16;67.14
74635;BME280;63140;56.306;43.984;2022-11-15T09:15:59;99358.22;;;0.23;67.35
74635;BME280;63140;56.306;43.984;2022-11-15T09:18:43;99370.16;;;0.33;67.26
74635;BME280;63140;56.306;43.984;2022-11-15T09:21:28;99357.31;;;0.49;66.77
74635;BME280;63140;56.306;43.984;2022-11-15T09:24:14;99363.31;;;0.50;66.51
74635;BME280;63140;56.306;43.984;2022-11-15T09:26:58;99357.59;;;0.56;66.89
74635;BME280;63140;56.306;43.984;2022-11-15T09:29:42;99365.22;;;0.61;66.79
74635;BME280;63140;56.306;43.984;2022-11-15T09:32:29;99361.53;;;0.62;72.81
74635;BME280;63140;56.306;43.984;2022-11-15T09:35:16;99360.47;;;0.63;71.01
74635;BME280;63140;56.306;43.984;2022-11-15T09:38:03;99362.53;;;0.70;67.90
74635;BME280;63140;56.306;43.984;2022-11-15T09:40:52;99348.53;;;0.54;66.83
74635;BME280;63140;56.306;43.984;2022-11-15T09:50:28;99347.59;;;-0.01;68.17
74635;BME280;63140;56.306;43.984;2022-11-15T09:52:56;99361.84;;;0.10;68.68
74635;BME280;63140;56.306;43.984;2022-11-15T09:55:43;99354.47;;;0.12;67.99
74635;BME280;63140;56.306;43.984;2022-11-15T09:58:36;99361.19;;;0.13;67.64
74635;BME280;63140;56.306;43.984;2022-11-15T10:01:17;99361.69;;;0.07;67.94
74635;BME280;63140;56.306;43.984;2022-11-15T10:03:45;99365.38;;;0.14;68.02
74635;BME280;63140;56.306;43.984;2022-11-15T10:06:30;99355.00;;;0.27;68.79
74635;BME280;63140;56.306;43.984;2022-11-15T10:09:02;99367.97;;;0.14;68.07
74635;BME280;63140;56.306;43.984;2022-11-15T10:11:34;99352.31;;;0.14;69.05
74635;BME280;63140;56.306;43.984;2022-11-15T10:14:04;99356.53;;;0.28;68.24
74635;BME280;63140;56.306;43.984;2022-11-15T10:16:50;99348.41;;;0.20;68.06
74635;BME280;63140;56.306;43.984;2022-11-15T10:23:05;99352.66;;;0.34;68.08
74635;BME280;63140;56.306;43.984;2022-11-15T10:25:33;99355.13;;;0.30;68.30
74635;BME280;63140;56.306;43.984;2022-11-15T10:28:29;99356.91;;;0.38;67.71
74635;BME280;63140;56.306;43.984;2022-11-15T10:31:00;99352.84;;;0.29;68.07
74635;BME280;63140;56.306;43.984;2022-11-15T10:33:35;99351.84;;;0.12;68.27
74635;BME280;63140;56.306;43.984;2022-11-15T10:41:17;99364.72;;;0.47;68.05
74635;BME280;63140;56.306;43.984;2022-11-15T10:43:43;99362.94;;;0.39;67.42
74635;BME280;63140;56.306;43.984;2022-11-15T10:46:21;99365.91;;;0.29;67.40
74635;BME280;63140;56.306;43.984;2022-11-15T10:48:47;99361.47;;;0.20;68.03
74635;BME280;63140;56.306;43.984;2022-11-15T10:51:24;99362.28;;;0.12;70.21
74635;BME280;63140;56.306;43.984;2022-11-15T10:53:59;99356.13;;;0.17;68.72
74635;BME280;63140;56.306;43.984;2022-11-15T10:56:26;99352.31;;;0.14;68.63
74635;BME280;63140;56.306;43.984;2022-11-15T10:58:56;99346.81;;;0.07;68.09
74635;BME280;63140;56.306;43.984;2022-11-15T11:01:25;99351.25;;;0.07;68.57
74635;BME280;63140;56.306;43.984;2022-11-15T11:04:06;99352.03;;;0.07;68.47
74635;BME280;63140;56.306;43.984;2022-11-15T11:06:53;99363.72;;;0.01;68.63
74635;BME280;63140;56.306;43.984;2022-11-15T11:11:54;99350.75;;;0.13;68.60
74635;BME280;63140;56.306;43.984;2022-11-15T11:14:21;99358.06;;;0.29;68.40
74635;BME280;63140;56.306;43.984;2022-11-15T11:22:40;99371.97;;;0.12;68.01
74635;BME280;63140;56.306;43.984;2022-11-15T11:28:41;99362.34;;;0.04;68.38
74635;BME280;63140;56.306;43.984;2022-11-15T11:34:17;99356.34;;;0.03;68.18
74635;BME280;63140;56.306;43.984;2022-11-15T11:42:50;99351.38;;;0.10;68.36
74635;BME280;63140;56.306;43.984;2022-11-15T11:45:56;99359.41;;;0.05;68.53
74635;BME280;63140;56.306;43.984;2022-11-15T11:48:48;99360.50;;;0.04;68.52
74635;BME280;63140;56.306;43.984;2022-11-15T11:51:36;99344.63;;;-0.20;69.02
74635;BME280;63140;56.306;43.984;2022-11-15T11:54:11;99363.53;;;-0.23;69.21
74635;BME280;63140;56.306;43.984;2022-11-15T11:56:40;99350.63;;;-0.29;69.41
74635;BME280;63140;56.306;43.984;2022-11-15T11:59:43;99351.91;;;-0.35;69.76
74635;BME280;63140;56.306;43.984;2022-11-15T12:02:33;99348.97;;;-0.33;69.83
74635;BME280;63140;56.306;43.984;2022-11-15T12:05:11;99353.84;;;-0.23;69.83
74635;BME280;63140;56.306;43.984;2022-11-15T12:07:39;99351.25;;;-0.32;68.77
74635;BME280;63140;56.306;43.984;2022-11-15T12:10:30;99350.81;;;-0.34;69.55
74635;BME280;63140;56.306;43.984;2022-11-15T12:13:05;99357.28;;;-0.40;69.12
74635;BME280;63140;56.306;43.984;2022-11-15T12:15:48;99344.22;;;-0.40;69.35
74635;BME280;63140;56.306;43.984;2022-11-15T12:18:16;99357.16;;;-0.52;69.96
74635;BME280;63140;56.306;43.984;2022-11-15T12:20:56;99359.25;;;-0.37;69.18
74635;BME280;63140;56.306;43.984;2022-11-15T12:23:29;99360.78;;;-0.36;69.08
74635;BME280;63140;56.306;43.984;2022-11-15T12:26:16;99350.91;;;-0.21;69.34
74635;BME280;63140;56.306;43.984;2022-11-15T12:28:54;99358.31;;;-0.23;69.19
74635;BME280;63140;56.306;43.984;2022-11-15T12:34:15;99358.59;;;-0.16;69.74
74635;BME280;63140;56.306;43.984;2022-11-15T12:36:54;99349.31;;;-0.05;69.45
74635;BME280;63140;56.306;43.984;2022-11-15T12:42:38;99360.38;;;0.01;69.42
74635;BME280;63140;56.306;43.984;2022-11-15T12:47:52;99353.03;;;-0.06;68.60
74635;BME280;63140;56.306;43.984;2022-11-15T13:04:28;99342.84;;;0.01;68.28
74635;BME280;63140;56.306;43.984;2022-11-15T13:07:02;99350.53;;;-0.03;68.70
74635;BME280;63140;56.306;43.984;2022-11-15T13:12:11;99343.44;;;-0.32;67.96
74635;BME280;63140;56.306;43.984;2022-11-15T13:15:01;99344.31;;;-0.19;67.61
74635;BME280;63140;56.306;43.984;2022-11-15T13:17:32;99336.19;;;-0.17;67.64
74635;BME280;63140;56.306;43.984;2022-11-15T13:22:40;99348.50;;;-0.27;67.49
74635;BME280;63140;56.306;43.984;2022-11-15T13:31:03;99345.41;;;-0.29;67.23
74635;BME280;63140;56.306;43.984;2022-11-15T13:33:39;99347.25;;;-0.20;67.84
74635;BME280;63140;56.306;43.984;2022-11-15T13:36:14;99348.41;;;-0.09;68.02
74635;BME280;63140;56.306;43.984;2022-11-15T13:38:42;99346.72;;;-0.05;67.72
74635;BME280;63140;56.306;43.984;2022-11-15T13:41:19;99347.16;;;-0.03;68.11
74635;BME280;63140;56.306;43.984;2022-11-15T13:43:46;99350.69;;;0.01;67.92
74635;BME280;63140;56.306;43.984;2022-11-15T13:48:43;99350.53;;;-0.03;67.81
74635;BME280;63140;56.306;43.984;2022-11-15T13:51:17;99343.81;;;-0.12;68.22
74635;BME280;63140;56.306;43.984;2022-11-15T13:53:50;99346.09;;;-0.02;68.19
74635;BME280;63140;56.306;43.984;2022-11-15T13:56:20;99353.91;;;-0.02;68.23
74635;BME280;63140;56.306;43.984;2022-11-15T13:58:46;99351.56;;;0.05;67.86
74635;BME280;63140;56.306;43.984;2022-11-15T14:01:18;99350.50;;;0.06;67.88
74635;BME280;63140;56.306;43.984;2022-11-15T14:03:54;99346.69;;;0.04;67.63
74635;BME280;63140;56.306;43.984;2022-11-15T14:06:23;99346.34;;;0.05;67.83
74635;BME280;63140;56.306;43.984;2022-11-15T14:11:53;99348.63;;;0.15;67.72
74635;BME280;63140;56.306;43.984;2022-11-15T14:14:21;99348.63;;;0.07;67.74
74635;BME280;63140;56.306;43.984;2022-11-15T14:16:59;99350.31;;;0.11;67.95
74635;BME280;63140;56.306;43.984;2022-11-15T14:22:31;99350.41;;;0.23;68.06
74635;BME280;63140;56.306;43.984;2022-11-15T14:25:21;99344.28;;;0.19;67.80
74635;BME280;63140;56.306;43.984;2022-11-15T14:28:14;99339.69;;;0.16;67.80
74635;BME280;63140;56.306;43.984;2022-11-15T14:30:43;99342.56;;;0.23;68.38
74635;BME280;63140;56.306;43.984;2022-11-15T14:33:25;99336.25;;;0.24;68.88
74635;BME280;63140;56.306;43.984;2022-11-15T14:35:54;99337.59;;;0.31;68.16
74635;BME280;63140;56.306;43.984;2022-11-15T14:38:21;99339.16;;;0.32;67.83
74635;BME280;63140;56.306;43.984;2022-11-15T14:40:47;99334.09;;;0.27;67.47
74635;BME280;63140;56.306;43.984;2022-11-15T14:43:13;99331.03;;;0.24;68.02
74635;BME280;63140;56.306;43.984;2022-11-15T14:45:40;99333.97;;;0.23;68.09
74635;BME280;63140;56.306;43.984;2022-11-15T14:48:06;99324.47;;;0.18;68.25
74635;BME280;63140;56.306;43.984;2022-11-15T14:50:33;99335.69;;;0.19;67.88
74635;BME280;63140;56.306;43.984;2022-11-15T14:53:00;99331.59;;;0.09;67.94
74635;BME280;63140;56.306;43.984;2022-11-15T14:55:29;99340.66;;;0.03;67.92
74635;BME280;63140;56.306;43.984;2022-11-15T14:57:56;99334.56;;;-0.01;67.67
74635;BME280;63140;56.306;43.984;2022-11-15T15:00:22;99326.28;;;-0.03;67.65
74635;BME280;63140;56.306;43.984;2022-11-15T15:02:48;99322.25;;;-0.01;67.64
74635;BME280;63140;56.306;43.984;2022-11-15T15:05:27;99336.09;;;0.00;67.62
74635;BME280;63140;56.306;43.984;2022-11-15T15:07:55;99315.31;;;-0.17;67.56
74635;BME280;63140;56.306;43.984;2022-11-15T15:10:21;99325.91;;;-0.22;68.15
74635;BME280;63140;56.306;43.984;2022-11-15T15:12:47;99327.34;;;-0.34;67.89
74635;BME280;63140;56.306;43.984;2022-11-15T15:15:21;99327.47;;;-0.30;68.30
74635;BME280;63140;56.306;43.984;2022-11-15T15:17:49;99333.31;;;-0.33;68.42
74635;BME280;63140;56.306;43.984;2022-11-15T15:20:16;99337.31;;;-0.36;69.35
74635;BME280;63140;56.306;43.984;2022-11-15T15:22:42;99331.38;;;-0.45;68.72
74635;BME280;63140;56.306;43.984;2022-11-15T15:27:45;99327.72;;;-0.61;69.51
74635;BME280;63140;56.306;43.984;2022-11-15T15:30:11;99336.63;;;-0.62;69.27
74635;BME280;63140;56.306;43.984;2022-11-15T15:32:37;99329.53;;;-0.53;69.03
74635;BME280;63140;56.306;43.984;2022-11-15T15:35:03;99329.88;;;-0.63;69.34
74635;BME280;63140;56.306;43.984;2022-11-15T15:37:31;99322.38;;;-0.65;69.59
74635;BME280;63140;56.306;43.984;2022-11-15T15:39:58;99329.47;;;-0.83;70.25
74635;BME280;63140;56.306;43.984;2022-11-15T15:42:24;99325.00;;;-0.74;70.39
74635;BME280;63140;56.306;43.984;2022-11-15T15:44:50;99325.91;;;-0.69;70.37
74635;BME280;63140;56.306;43.984;2022-11-15T15:47:21;99323.59;;;-0.62;69.98
74635;BME280;63140;56.306;43.984;2022-11-15T15:49:49;99324.03;;;-0.60;70.74
74635;BME280;63140;56.306;43.984;2022-11-15T15:52:15;99330.16;;;-0.56;70.96
74635;BME280;63140;56.306;43.984;2022-11-15T15:54:42;99324.94;;;-0.56;71.24
74635;BME280;63140;56.306;43.984;2022-11-15T15:57:10;99318.25;;;-0.66;71.69
74635;BME280;63140;56.306;43.984;2022-11-15T15:59:37;99324.38;;;-0.70;71.01
74635;BME280;63140;56.306;43.984;2022-11-15T16:02:03;99317.63;;;-0.72;71.32
74635;BME280;63140;56.306;43.984;2022-11-15T16:04:29;99310.72;;;-0.67;70.81
74635;BME280;63140;56.306;43.984;2022-11-15T16:06:59;99326.22;;;-0.62;70.96
74635;BME280;63140;56.306;43.984;2022-11-15T16:09:25;99325.91;;;-0.69;70.83
74635;BME280;63140;56.306;43.984;2022-11-15T16:12:10;99309.38;;;-0.74;70.39